Time;durP1;ratioP1;P1;durP2;ratioP2;P2;SDS_P1;SDS_P2;PMS_P1;PMS_P2;Temp;Humidity;BMP_temperature;BMP_pressure;BME280_temperature;BME280_humidity;BME280_pressure;Samples;Min_cycle;Max_cycle;Signal;HPM_P1;HPM_P2
2022/09/06 00:01:22;;;;;;;0.80;0.80;;;;;;;20.69;57.34;98875.78;4919366;29;20517;-68
2022/09/06 00:03:49;;;;;;;0.75;0.75;;;;;;;20.70;57.31;98874.75;4910439;29;20055;-68
2022/09/06 00:06:17;;;;;;;0.80;0.80;;;;;;;20.73;56.98;98876.09;4912051;29;20067;-68
2022/09/06 00:08:44;;;;;;;0.80;0.80;;;;;;;20.76;57.42;98876.38;4918123;29;20666;-68
2022/09/06 00:11:12;;;;;;;0.85;0.85;;;;;;;20.78;57.10;98879.63;4918126;29;20055;-69
2022/09/06 00:13:39;;;;;;;0.70;0.70;;;;;;;20.80;57.14;98883.94;4919329;29;20071;-68
2022/09/06 00:16:08;;;;;;;0.90;0.90;;;;;;;20.77;57.25;98878.00;4919190;29;20059;-68
2022/09/06 00:18:35;;;;;;;0.80;0.80;;;;;;;20.77;57.34;98882.56;4919148;29;20500;-69
2022/09/06 00:21:03;;;;;;;0.85;0.85;;;;;;;20.78;57.14;98879.63;4902306;29;20052;-68
2022/09/06 00:23:29;;;;;;;0.95;0.85;;;;;;;20.80;57.17;98881.25;4919246;29;20040;-69
2022/09/06 00:26:05;;;;;;;0.85;0.85;;;;;;;20.80;57.36;98881.25;4917866;29;20048;-69
2022/09/06 00:28:32;;;;;;;0.85;0.70;;;;;;;20.80;57.06;98892.00;4918831;29;20062;-69
2022/09/06 00:31:06;;;;;;;0.93;0.93;;;;;;;20.78;57.16;98962.91;4920392;29;20107;-68
2022/09/06 00:33:32;;;;;;;2.50;2.30;;;;;;;20.66;57.10;99047.41;4912146;29;20131;-68
2022/09/06 00:35:59;;;;;;;2.90;2.60;;;;;;;20.50;57.43;99044.56;4910940;29;20055;-69
2022/09/06 00:38:26;;;;;;;3.47;3.05;;;;;;;20.42;57.41;99049.53;4917318;29;20044;-69
2022/09/06 00:40:52;;;;;;;3.10;2.90;;;;;;;20.38;57.98;99086.00;4917499;29;20139;-69
2022/09/06 00:43:19;;;;;;;3.63;3.22;;;;;;;20.39;58.09;99076.88;4918628;29;20036;-68
2022/09/06 00:45:46;;;;;;;4.95;2.53;;;;;;;20.46;58.69;99062.19;4917574;29;20048;-68
2022/09/06 00:48:13;;;;;;;2.92;2.28;;;;;;;20.56;59.25;99058.03;4918577;29;20436;-69
2022/09/06 00:50:40;;;;;;;2.08;1.85;;;;;;;20.62;59.16;99079.34;4918659;29;20411;-68
2022/09/06 00:53:07;;;;;;;2.00;1.90;;;;;;;20.64;60.06;99081.75;4918574;29;20050;-68
2022/09/06 00:55:33;;;;;;;2.47;2.10;;;;;;;20.63;60.21;99094.38;4917401;29;20052;-69
2022/09/06 00:58:00;;;;;;;2.17;1.85;;;;;;;20.63;60.87;99089.00;4901369;29;20045;-68
2022/09/06 01:00:27;;;;;;;2.88;1.90;;;;;;;20.62;61.42;99073.16;4918401;29;20236;-68
2022/09/06 01:02:53;;;;;;;2.63;2.25;;;;;;;20.59;61.47;99070.97;4909946;29;20041;-68
2022/09/06 01:05:41;;;;;;;2.35;2.10;;;;;;;20.50;62.53;99078.66;4909913;29;20075;-69
2022/09/06 01:08:33;;;;;;;3.15;2.20;;;;;;;20.42;63.53;99073.69;4918052;29;20048;-67
2022/09/06 01:11:26;;;;;;;2.33;1.80;;;;;;;20.35;62.99;99073.88;4918181;29;20519;-68
2022/09/06 01:14:10;;;;;;;1.67;1.58;;;;;;;20.35;63.53;99071.19;4918072;29;20552;-67
2022/09/06 01:17:09;;;;;;;2.85;2.10;;;;;;;20.37;63.45;99057.50;4916503;29;20078;-67
2022/09/06 01:20:14;;;;;;;2.40;2.08;;;;;;;20.28;64.09;99019.53;4919572;29;20063;-70
2022/09/06 01:23:06;;;;;;;1.80;1.70;;;;;;;20.22;64.45;99012.50;4916550;29;20045;-67
2022/09/06 01:25:44;;;;;;;1.67;1.40;;;;;;;20.19;64.72;99007.63;4918092;29;20040;-67
2022/09/06 01:28:24;;;;;;;1.60;1.50;;;;;;;20.14;65.05;98986.13;4917735;29;20412;-67
2022/09/06 01:31:03;;;;;;;1.40;1.30;;;;;;;20.11;66.36;98987.41;4917829;29;20048;-67
2022/09/06 01:33:45;;;;;;;1.60;1.50;;;;;;;20.08;65.66;99005.88;4894084;29;20083;-70
2022/09/06 01:36:17;;;;;;;1.90;1.48;;;;;;;20.06;66.32;99008.81;4879882;29;20055;-67
2022/09/06 01:38:43;;;;;;;1.70;1.40;;;;;;;20.11;66.40;98997.34;4880243;29;20555;-67
2022/09/06 01:41:10;;;;;;;1.38;1.20;;;;;;;20.13;66.47;98996.03;4880074;29;20112;-67
2022/09/06 01:43:39;;;;;;;1.83;1.27;;;;;;;20.17;66.66;98999.03;4878858;29;20041;-69
2022/09/06 01:46:16;;;;;;;1.42;1.23;;;;;;;20.18;66.51;99004.16;4878623;29;20052;-68
2022/09/06 01:49:21;;;;;;;1.60;1.00;;;;;;;20.22;66.43;99002.59;4879775;29;20049;-68
2022/09/06 01:52:14;;;;;;;1.08;1.08;;;;;;;20.24;66.73;99005.00;4872098;29;20068;-69
2022/09/06 01:55:02;;;;;;;0.98;0.95;;;;;;;20.25;66.93;99014.69;4879778;29;20573;-69
2022/09/06 01:57:49;;;;;;;1.00;1.00;;;;;;;20.28;66.71;99012.31;4878438;29;20551;-68
2022/09/06 02:00:18;;;;;;;1.85;1.40;;;;;;;20.31;66.73;98989.53;4878549;29;20066;-69
2022/09/06 02:03:12;;;;;;;2.13;1.52;;;;;;;20.27;66.95;98973.09;4885756;29;20048;-68
2022/09/06 02:05:49;;;;;;;3.38;1.65;;;;;;;20.19;67.29;98954.75;4909228;29;20566;-69
2022/09/06 02:08:28;;;;;;;1.30;1.20;;;;;;;20.20;67.94;98958.25;4915699;29;20059;-69
2022/09/06 02:11:04;;;;;;;1.20;1.10;;;;;;;20.21;67.74;98952.66;4917197;29;20054;-68
2022/09/06 02:13:47;;;;;;;2.05;1.13;;;;;;;20.21;67.87;98944.59;4915972;29;20063;-69
2022/09/06 02:16:19;;;;;;;1.15;1.05;;;;;;;20.20;67.90;98942.97;4916737;29;20069;-69
2022/09/06 02:18:57;;;;;;;2.25;1.35;;;;;;;20.20;67.96;98948.31;4915475;29;20056;-69
2022/09/06 02:21:29;;;;;;;1.30;1.20;;;;;;;20.19;68.13;98952.06;4916719;29;20055;-69
2022/09/06 02:24:00;;;;;;;1.40;1.30;;;;;;;20.19;68.31;98962.00;4916791;29;20072;-69
2022/09/06 02:26:31;;;;;;;1.55;1.20;;;;;;;20.19;68.40;98957.44;4917087;29;20090;-69
2022/09/06 02:28:58;;;;;;;0.88;0.88;;;;;;;20.20;68.61;98979.72;4916774;29;20534;-69
2022/09/06 02:31:29;;;;;;;0.70;0.70;;;;;;;20.21;68.62;98984.88;4916665;29;20044;-69
2022/09/06 02:33:56;;;;;;;0.70;0.70;;;;;;;20.22;68.77;98981.09;4908264;29;20132;-69
2022/09/06 02:36:23;;;;;;;0.80;0.80;;;;;;;20.23;69.03;98979.22;4909209;29;20523;-69
2022/09/06 02:38:50;;;;;;;0.70;0.70;;;;;;;20.25;68.68;98977.13;4916546;29;20048;-69
2022/09/06 02:41:21;;;;;;;1.02;0.90;;;;;;;20.25;68.70;98971.75;4915336;29;20052;-69
2022/09/06 02:43:48;;;;;;;2.55;2.00;;;;;;;20.23;68.13;98977.34;4916636;29;20558;-69
2022/09/06 02:46:15;;;;;;;1.48;1.38;;;;;;;20.16;68.56;98973.22;4916240;29;20048;-69
2022/09/06 02:48:41;;;;;;;0.98;0.98;;;;;;;20.08;68.96;98966.44;4915340;29;20052;-69
2022/09/06 02:51:09;;;;;;;1.40;1.30;;;;;;;20.02;69.20;98957.53;4915246;29;20499;-69
2022/09/06 02:53:35;;;;;;;12.38;11.07;;;;;;;19.97;69.53;98956.66;4916873;29;20050;-69
2022/09/06 02:56:02;;;;;;;7.68;6.88;;;;;;;19.91;70.13;98953.09;4915042;29;20059;-69
2022/09/06 02:58:29;;;;;;;5.10;4.60;;;;;;;19.89;70.18;98955.22;4916256;29;20051;-69
2022/09/06 03:00:56;;;;;;;3.35;3.08;;;;;;;19.86;69.88;98950.34;4916265;29;20056;-69
2022/09/06 03:03:23;;;;;;;3.88;2.70;;;;;;;19.81;70.18;98947.59;4909496;29;20131;-69
2022/09/06 03:05:51;;;;;;;3.53;2.30;;;;;;;19.70;69.72;98943.97;4908130;29;20044;-68
2022/09/06 03:08:19;;;;;;;2.35;2.00;;;;;;;19.63;70.28;98937.97;4914478;29;20059;-69
2022/09/06 03:10:54;;;;;;;1.75;1.65;;;;;;;19.58;70.40;98929.03;4916080;29;20489;-69
2022/09/06 03:13:23;;;;;;;2.13;1.92;;;;;;;19.49;70.91;98928.66;4916158;29;20127;-70
2022/09/06 03:15:51;;;;;;;2.67;2.10;;;;;;;19.40;70.92;98919.41;4916022;29;20070;-70
2022/09/06 03:18:17;;;;;;;3.20;2.17;;;;;;;19.34;71.09;98909.66;4915754;29;20456;-67
2022/09/06 03:20:44;;;;;;;2.67;2.13;;;;;;;19.27;71.56;98912.53;4914758;29;20127;-67
2022/09/06 03:23:11;;;;;;;2.15;1.95;;;;;;;19.20;71.67;98912.69;4916103;29;20046;-67
2022/09/06 03:25:37;;;;;;;2.58;2.22;;;;;;;19.15;71.96;98918.00;4916106;29;20044;-67
2022/09/06 03:28:04;;;;;;;2.85;2.10;;;;;;;19.11;72.24;98916.06;4915074;29;20048;-69
2022/09/06 03:30:30;;;;;;;1.65;1.48;;;;;;;19.05;72.69;98917.81;4915887;29;20044;-67
2022/09/06 03:32:58;;;;;;;1.40;1.30;;;;;;;19.00;72.96;98920.44;4909094;29;20077;-67
2022/09/06 03:35:28;;;;;;;1.50;1.40;;;;;;;18.95;73.05;98915.81;4907979;29;20048;-70
2022/09/06 03:37:55;;;;;;;1.85;1.75;;;;;;;18.94;72.82;98916.03;4915607;29;20048;-67
2022/09/06 03:40:21;;;;;;;3.35;2.22;;;;;;;18.90;72.98;98910.38;4914651;29;20048;-67
2022/09/06 03:42:48;;;;;;;2.22;1.90;;;;;;;18.89;73.58;98913.28;4915765;29;20048;-70
2022/09/06 03:45:14;;;;;;;1.67;1.58;;;;;;;18.89;73.43;98911.41;4914732;29;20127;-68
2022/09/06 03:47:41;;;;;;;1.40;1.30;;;;;;;18.89;73.69;98908.75;4914469;29;20055;-68
2022/09/06 03:50:08;;;;;;;1.77;1.50;;;;;;;18.91;74.04;98911.19;4914314;29;20059;-68
2022/09/06 03:52:34;;;;;;;1.23;1.13;;;;;;;18.93;73.98;98914.41;4915764;29;20036;-69
2022/09/06 03:55:02;;;;;;;1.70;1.58;;;;;;;18.93;73.46;98917.91;4916144;29;20044;-69
2022/09/06 03:57:28;;;;;;;3.90;2.03;;;;;;;18.94;73.42;98913.34;4914388;29;20126;-69
2022/09/06 03:59:55;;;;;;;1.73;1.63;;;;;;;18.93;73.52;98912.56;4916016;29;20491;-70
2022/09/06 04:02:22;;;;;;;1.60;1.50;;;;;;;18.93;73.81;98922.47;5292445;23;20056;-70
2022/09/06 04:04:48;;;;;;;1.88;1.58;;;;;;;18.93;73.53;98922.47;4897097;29;20053;-69
2022/09/06 04:07:15;;;;;;;1.08;1.08;;;;;;;18.94;73.95;98926.75;4895771;29;20052;-70
2022/09/06 04:09:42;;;;;;;0.98;0.98;;;;;;;18.94;73.71;98929.44;4897561;29;20139;-71
2022/09/06 04:12:09;;;;;;;0.95;0.95;;;;;;;18.92;73.43;98928.88;4897122;29;20053;-69
2022/09/06 04:14:35;;;;;;;1.08;1.00;;;;;;;18.91;73.51;98919.22;4895575;29;20045;-69
2022/09/06 04:17:02;;;;;;;1.40;1.30;;;;;;;18.88;73.47;98911.66;4946773;23;20059;31
2022/09/06 04:19:29;;;;;;;1.17;1.08;;;;;;;18.83;73.50;98915.09;4876722;29;20065;-68
2022/09/06 04:21:55;;;;;;;1.38;1.27;;;;;;;18.80;73.62;98915.56;4875207;29;20045;-67
2022/09/06 04:24:22;;;;;;;1.42;1.30;;;;;;;18.77;74.07;98921.41;4859363;29;20094;-67
2022/09/06 04:26:49;;;;;;;1.20;1.10;;;;;;;18.73;73.63;98918.38;4858907;29;20042;-67
2022/09/06 04:29:15;;;;;;;1.60;1.23;;;;;;;18.69;73.99;98911.88;4858091;29;20056;-66
2022/09/06 04:31:42;;;;;;;1.20;1.10;;;;;;;18.67;73.97;98915.84;4859157;29;20053;-68
2022/09/06 04:34:08;;;;;;;1.20;0.90;;;;;;;18.65;74.13;98918.75;4880901;29;20049;-66
2022/09/06 04:36:36;;;;;;;0.70;0.70;;;;;;;18.64;74.13;98919.81;4873507;29;20048;-68
2022/09/06 04:39:02;;;;;;;2.10;0.75;;;;;;;18.60;74.12;98925.91;4878421;29;20060;-66
2022/09/06 04:41:29;;;;;;;0.73;0.73;;;;;;;18.58;73.91;98922.66;4880996;29;20056;-66
2022/09/06 04:43:55;;;;;;;0.90;0.90;;;;;;;18.58;74.13;98928.03;4880783;29;20533;-68
2022/09/06 04:46:25;;;;;;;0.80;0.80;;;;;;;18.59;74.42;98935.81;4880757;29;20143;-68
2022/09/06 04:48:53;;;;;;;1.13;1.08;;;;;;;18.58;74.11;98942.22;4880789;29;20056;-66
2022/09/06 04:51:21;;;;;;;0.90;0.90;;;;;;;18.54;73.90;98939.19;4863981;29;20045;-67
2022/09/06 04:53:48;;;;;;;1.00;1.00;;;;;;;18.51;74.34;98936.19;4880844;29;20125;-65
2022/09/06 04:56:20;;;;;;;3.00;1.02;;;;;;;18.47;74.16;98930.50;4894847;29;20221;-66
2022/09/06 04:58:48;;;;;;;1.87;1.30;;;;;;;18.48;74.24;98934.78;4880551;29;20485;-66
2022/09/06 05:01:15;;;;;;;1.65;1.15;;;;;;;18.48;73.92;98934.78;4879618;29;20049;-66
2022/09/06 05:03:42;;;;;;;1.20;1.10;;;;;;;18.48;74.32;98931.31;4873747;29;20049;-66
2022/09/06 05:06:17;;;;;;;1.38;1.27;;;;;;;18.50;73.96;98932.72;4866955;29;20060;-66
2022/09/06 05:08:44;;;;;;;1.13;1.00;;;;;;;18.53;74.29;98929.56;4882429;29;20056;-65
2022/09/06 05:11:10;;;;;;;1.08;1.00;;;;;;;18.58;73.75;98931.50;4882858;29;20045;-66
2022/09/06 05:13:37;;;;;;;1.30;1.10;;;;;;;18.58;73.97;98939.53;4896111;29;20053;-66
2022/09/06 05:16:06;;;;;;;1.30;1.10;;;;;;;18.58;74.15;98954.78;4880769;29;20071;-66
2022/09/06 05:18:33;;;;;;;0.98;0.98;;;;;;;18.59;73.85;98961.75;4879167;29;20061;-67
2022/09/06 05:20:59;;;;;;;0.73;0.70;;;;;;;18.60;74.04;98971.41;4880594;29;20049;-68
2022/09/06 05:23:27;;;;;;;1.10;1.00;;;;;;;18.62;74.07;98980.03;4880309;29;20048;-67
2022/09/06 05:25:53;;;;;;;0.80;0.80;;;;;;;18.67;73.83;98961.38;4880241;29;20433;-67
2022/09/06 05:28:20;;;;;;;0.98;0.98;;;;;;;18.68;73.78;98969.16;4880017;29;20068;-67
2022/09/06 05:30:47;;;;;;;1.60;1.10;;;;;;;18.69;73.72;98969.97;4880147;29;20461;-66
2022/09/06 05:33:19;;;;;;;0.80;0.80;;;;;;;18.67;73.43;98972.09;4873320;29;20045;-66
2022/09/06 05:35:47;;;;;;;1.15;1.08;;;;;;;18.67;73.78;98975.56;4872275;29;20045;-69
2022/09/06 05:38:14;;;;;;;1.15;1.05;;;;;;;18.69;73.46;98980.66;4879729;29;20049;-69
2022/09/06 05:40:40;;;;;;;1.30;1.20;;;;;;;18.68;73.24;98977.19;4880046;29;20063;-67
2022/09/06 05:43:07;;;;;;;1.67;1.33;;;;;;;18.69;73.67;98978.81;4879882;29;20052;-65
2022/09/06 05:45:33;;;;;;;1.02;0.82;;;;;;;18.73;73.58;98979.16;4879968;29;20041;-66
2022/09/06 05:48:00;;;;;;;1.88;1.10;;;;;;;18.74;73.32;98975.47;4879536;29;20045;-67
2022/09/06 05:50:27;;;;;;;1.10;1.00;;;;;;;18.75;73.45;98977.88;4878138;29;20059;-66
2022/09/06 05:52:53;;;;;;;0.90;0.90;;;;;;;18.79;73.35;98980.91;4894157;29;20045;-65
2022/09/06 05:55:20;;;;;;;1.25;1.15;;;;;;;18.84;72.98;98977.50;4879942;29;20046;-66
2022/09/06 05:57:46;;;;;;;1.15;1.05;;;;;;;18.90;73.36;98979.19;4879460;29;20068;-67
2022/09/06 06:00:13;;;;;;;1.85;1.00;;;;;;;18.96;73.20;98976.34;4879644;29;20045;-66
2022/09/06 06:02:40;;;;;;;1.42;1.10;;;;;;;18.99;73.21;98975.06;4887601;29;20049;-66
2022/09/06 06:05:07;;;;;;;1.00;0.90;;;;;;;19.01;73.27;98983.66;4869835;29;20049;-66
2022/09/06 06:07:33;;;;;;;1.35;1.25;;;;;;;19.04;73.29;98989.34;4879048;29;20060;-67
2022/09/06 06:10:00;;;;;;;1.27;1.17;;;;;;;19.09;72.88;98993.97;4893703;29;20056;-67
2022/09/06 06:12:26;;;;;;;1.20;1.10;;;;;;;19.16;72.74;98994.63;4879513;29;20409;-67
2022/09/06 06:14:53;;;;;;;1.15;1.08;;;;;;;19.21;72.78;98997.41;4879339;29;20045;-66
2022/09/06 06:17:19;;;;;;;1.40;1.30;;;;;;;19.25;72.57;98992.34;4878863;29;20053;-67
2022/09/06 06:19:46;;;;;;;1.20;1.10;;;;;;;19.31;72.59;98991.41;4893635;29;20041;-67
2022/09/06 06:22:12;;;;;;;1.40;1.30;;;;;;;19.36;72.22;98988.78;4879395;29;20052;-66
2022/09/06 06:24:39;;;;;;;0.85;0.85;;;;;;;19.42;72.73;98995.84;4893418;29;20049;-66
2022/09/06 06:27:06;;;;;;;1.00;0.90;;;;;;;19.47;72.65;98995.94;4893295;29;20049;-66
2022/09/06 06:29:32;;;;;;;1.08;0.98;;;;;;;19.51;72.29;98985.50;4879077;29;20449;-65
2022/09/06 06:31:59;;;;;;;0.93;0.93;;;;;;;19.56;72.16;98990.97;4878346;29;20409;-66
2022/09/06 06:34:25;;;;;;;1.50;1.40;;;;;;;19.59;71.95;98989.63;4868801;29;20041;-68
2022/09/06 06:36:52;;;;;;;1.50;1.25;;;;;;;19.62;72.20;98994.53;4891386;29;20044;-66
2022/09/06 06:39:19;;;;;;;1.20;1.10;;;;;;;19.69;72.06;98987.16;4893893;29;20049;-67
2022/09/06 06:41:46;;;;;;;2.42;2.22;;;;;;;19.71;71.62;98985.81;4879764;29;20624;-67
2022/09/06 06:44:36;;;;;;;1.83;1.70;;;;;;;19.75;71.64;98986.94;4893248;29;20049;-67
2022/09/06 06:47:03;;;;;;;1.52;1.42;;;;;;;19.79;71.79;98989.94;4878740;29;20053;-66
2022/09/06 06:49:30;;;;;;;1.30;1.20;;;;;;;19.83;71.66;98990.28;4878928;29;20052;-66
2022/09/06 06:51:56;;;;;;;1.40;1.30;;;;;;;19.88;71.88;98987.66;4878801;29;20045;-67
2022/09/06 06:54:23;;;;;;;1.20;1.10;;;;;;;19.90;71.46;98991.72;4878861;29;20060;-66
2022/09/06 06:56:49;;;;;;;0.95;0.95;;;;;;;19.89;71.21;98987.41;4877746;29;20053;-66
2022/09/06 06:59:16;;;;;;;1.35;1.25;;;;;;;19.89;71.77;98982.06;4879473;29;20049;-66
2022/09/06 07:01:43;;;;;;;1.88;1.20;;;;;;;19.94;71.66;98981.31;4878358;29;20429;-66
2022/09/06 07:04:11;;;;;;;1.00;1.00;;;;;;;19.95;71.43;98981.03;4882972;29;20094;-66
2022/09/06 07:06:50;;;;;;;1.48;1.30;;;;;;;19.97;71.45;98983.50;4874904;29;20133;-67
2022/09/06 07:09:38;;;;;;;1.00;1.00;;;;;;;19.98;71.26;98985.09;4879116;29;20071;-67
2022/09/06 07:12:24;;;;;;;1.38;1.27;;;;;;;20.01;71.31;98992.66;4878664;29;20135;-66
2022/09/06 07:14:51;;;;;;;2.72;1.60;;;;;;;20.06;71.67;99000.78;4879059;29;20059;-66
2022/09/06 07:17:17;;;;;;;1.75;1.65;;;;;;;20.11;71.41;98991.97;4878099;29;20513;-66
2022/09/06 07:19:44;;;;;;;1.90;1.80;;;;;;;20.11;71.25;98994.66;4879324;29;20052;-66
2022/09/06 07:22:30;;;;;;;2.28;2.08;;;;;;;20.07;71.38;98983.59;4880097;29;20509;-67
2022/09/06 07:24:57;;;;;;;1.80;1.70;;;;;;;20.06;71.46;98986.53;4879560;29;20049;-67
2022/09/06 07:27:23;;;;;;;1.63;1.52;;;;;;;20.02;71.32;98981.66;4893347;29;20045;-67
2022/09/06 07:30:10;;;;;;;2.33;1.80;;;;;;;19.99;71.38;98984.84;4878793;29;20525;-67
2022/09/06 07:32:37;;;;;;;1.88;1.77;;;;;;;19.98;71.64;98990.47;4872694;29;20513;-67
2022/09/06 07:35:04;;;;;;;2.28;2.08;;;;;;;19.97;71.19;98984.31;4870357;29;20045;-66
2022/09/06 07:37:30;;;;;;;2.47;2.28;;;;;;;20.04;71.34;98984.09;4880370;29;20052;-68
2022/09/06 07:39:57;;;;;;;2.33;2.13;;;;;;;20.17;71.27;98989.09;4883067;29;20049;-66
2022/09/06 07:42:23;;;;;;;2.25;1.83;;;;;;;20.34;71.27;98993.59;4880519;29;20057;-66
2022/09/06 07:44:50;;;;;;;2.20;2.00;;;;;;;20.39;70.73;98990.97;4897137;29;20056;-66
2022/09/06 07:47:16;;;;;;;2.50;2.15;;;;;;;20.41;71.11;98981.59;4897935;29;20132;-66
2022/09/06 07:50:03;;;;;;;2.53;2.20;;;;;;;20.48;70.72;98986.75;4884210;29;20068;-65
2022/09/06 07:52:50;;;;;;;3.35;3.10;;;;;;;20.46;69.96;98987.00;4882070;29;20053;-66
2022/09/06 07:55:32;;;;;;;2.70;1.88;;;;;;;20.55;70.47;98983.91;4896878;29;20049;-66
2022/09/06 07:57:58;;;;;;;2.65;2.45;;;;;;;20.61;70.47;98983.69;4882296;29;20044;-69
2022/09/06 08:00:25;;;;;;;2.25;2.15;;;;;;;20.66;70.54;98993.69;4883263;29;20055;-66
2022/09/06 08:02:52;;;;;;;2.20;1.95;;;;;;;20.70;70.36;98987.56;4871546;29;20469;-67
2022/09/06 08:05:18;;;;;;;2.60;2.40;;;;;;;20.77;70.17;98990.81;4884529;29;20041;-67
2022/09/06 08:08:05;;;;;;;2.83;2.53;;;;;;;20.85;70.04;98994.13;4889599;29;20509;-68
2022/09/06 08:10:51;;;;;;;1.85;1.75;;;;;;;20.94;70.24;98987.22;4877932;29;20117;-68
2022/09/06 08:13:17;;;;;;;2.67;2.42;;;;;;;21.01;69.80;98979.75;4893847;29;20052;-68
2022/09/06 08:15:44;;;;;;;3.70;3.40;;;;;;;21.07;69.48;98981.44;4881713;29;20060;-67
2022/09/06 08:18:11;;;;;;;2.97;2.78;;;;;;;21.12;69.53;98984.16;4881359;29;20044;-67
2022/09/06 08:20:37;;;;;;;1.92;1.83;;;;;;;21.24;70.06;98986.66;4881586;29;20049;-67
2022/09/06 08:23:10;;;;;;;2.75;2.55;;;;;;;21.34;69.35;98986.75;4896015;29;20449;-67
2022/09/06 08:25:36;;;;;;;2.28;2.08;;;;;;;21.48;69.30;98982.56;4881707;29;20060;-68
2022/09/06 08:28:03;;;;;;;3.45;2.88;;;;;;;21.54;68.50;98980.72;4881113;29;20045;-67
2022/09/06 08:30:29;;;;;;;3.03;2.50;;;;;;;21.58;68.11;98987.19;4881435;29;20064;-67
2022/09/06 08:32:56;;;;;;;2.80;2.28;;;;;;;21.65;68.58;98981.59;4874681;29;20061;-66
2022/09/06 08:35:22;;;;;;;3.20;2.97;;;;;;;21.77;68.41;98983.00;4872682;29;20045;-67
2022/09/06 08:37:49;;;;;;;4.55;3.85;;;;;;;21.85;67.59;98986.28;4881020;29;20053;-68
2022/09/06 08:40:20;;;;;;;4.18;3.53;;;;;;;21.91;67.57;98987.91;4895629;29;20064;-68
2022/09/06 08:42:47;;;;;;;3.10;2.80;;;;;;;21.93;67.41;98999.22;4881400;29;20064;-67
2022/09/06 08:45:18;;;;;;;3.58;3.28;;;;;;;22.00;67.22;98991.72;4880977;29;20053;-67
2022/09/06 08:47:44;;;;;;;3.58;3.28;;;;;;;22.07;66.77;98989.59;4894951;29;20523;-67
2022/09/06 08:50:11;;;;;;;3.65;3.30;;;;;;;22.14;66.65;98986.69;4881149;29;20059;-67
2022/09/06 08:52:48;;;;;;;3.25;2.95;;;;;;;22.25;66.69;98982.97;4881119;29;20146;-67
2022/09/06 08:55:43;;;;;;;4.93;3.70;;;;;;;22.37;65.89;98980.88;4880776;29;20045;-67
2022/09/06 08:58:18;;;;;;;3.00;2.70;;;;;;;22.47;65.76;98980.06;4880488;29;20055;-67
2022/09/06 09:00:57;;;;;;;3.85;2.30;;;;;;;22.59;66.05;98982.53;4880916;29;20056;-67
2022/09/06 09:03:30;;;;;;;2.78;2.50;;;;;;;22.72;65.59;98979.31;4888301;29;20057;-67
2022/09/06 09:05:58;;;;;;;2.83;2.53;;;;;;;22.86;65.15;98968.78;4872901;29;20067;-66
2022/09/06 09:08:41;;;;;;;2.00;1.90;;;;;;;22.94;64.94;98968.28;4894041;29;20056;-66
2022/09/06 09:11:14;;;;;;;1.65;1.55;;;;;;;23.07;64.62;98967.78;4895063;29;20157;-66
2022/09/06 09:13:53;;;;;;;1.57;1.47;;;;;;;23.21;64.75;98965.31;4879456;29;20421;-67
2022/09/06 09:16:21;;;;;;;1.17;1.17;;;;;;;23.35;64.35;98968.25;4894858;29;20459;-66
2022/09/06 09:18:54;;;;;;;1.42;1.33;;;;;;;23.49;64.23;98967.44;4880574;29;20137;-66
2022/09/06 09:21:25;;;;;;;1.60;1.50;;;;;;;23.60;63.64;98965.53;4881314;29;20052;-67
2022/09/06 09:24:08;;;;;;;1.60;1.50;;;;;;;23.67;63.55;98966.06;4880138;29;20049;-67
2022/09/06 09:26:48;;;;;;;2.58;2.38;;;;;;;23.77;63.29;98969.84;4881131;29;20592;-69
2022/09/06 09:29:16;;;;;;;1.90;1.80;;;;;;;23.90;63.35;98961.16;4880732;29;20056;-68
2022/09/06 09:31:48;;;;;;;3.15;2.80;;;;;;;23.97;62.55;98956.28;4879468;29;20077;-68
2022/09/06 09:34:32;;;;;;;2.90;2.70;;;;;;;24.03;62.18;98954.34;4861877;29;20688;-67
2022/09/06 09:37:21;;;;;;;2.67;2.47;;;;;;;24.12;62.25;98952.69;4878881;29;20080;-68
2022/09/06 09:40:26;;;;;;;3.72;2.80;;;;;;;24.22;62.30;98948.03;4894293;29;20049;-68
2022/09/06 09:43:07;;;;;;;2.92;2.13;;;;;;;24.32;61.78;98946.34;4878876;29;20053;-68
2022/09/06 09:45:34;;;;;;;2.30;2.10;;;;;;;24.42;61.99;98941.75;4879603;29;20506;-66
2022/09/06 09:48:17;;;;;;;2.53;1.92;;;;;;;24.53;61.52;98934.38;4879500;29;20045;-67
2022/09/06 09:50:45;;;;;;;2.08;1.98;;;;;;;24.62;61.40;98927.28;4863575;29;20064;-68
2022/09/06 09:53:13;;;;;;;1.60;1.50;;;;;;;24.76;61.31;98924.75;4878630;29;20060;-66
2022/09/06 09:55:41;;;;;;;1.58;1.48;;;;;;;24.87;61.07;98929.00;4879992;29;20041;-67
2022/09/06 09:58:19;;;;;;;1.60;1.50;;;;;;;24.98;61.09;98932.38;4893967;29;20494;-67
2022/09/06 10:00:46;;;;;;;1.50;1.40;;;;;;;25.08;60.58;98920.69;4878463;29;20049;-67
2022/09/06 10:03:17;;;;;;;2.03;1.92;;;;;;;25.16;60.02;98917.41;4872670;29;20045;-67
2022/09/06 10:05:56;;;;;;;1.85;1.73;;;;;;;25.27;60.12;98918.94;4885888;29;20060;-68
2022/09/06 10:08:31;;;;;;;1.60;1.50;;;;;;;25.41;59.89;98925.25;4879457;29;20620;-67
2022/09/06 10:10:58;;;;;;;2.03;1.92;;;;;;;25.51;59.40;98929.75;4893625;29;20056;-67
2022/09/06 10:13:32;;;;;;;1.77;1.67;;;;;;;25.60;59.51;98929.94;4879293;29;20056;-67
2022/09/06 10:16:01;;;;;;;1.90;1.80;;;;;;;25.68;59.24;98926.59;4879788;29;20052;-67
2022/09/06 10:18:37;;;;;;;2.15;1.98;;;;;;;25.73;59.04;98929.25;4905893;23;20092;-69
2022/09/06 10:21:12;;;;;;;1.77;1.58;;;;;;;25.79;58.70;98916.47;4898308;29;20059;-70
2022/09/06 10:24:07;;;;;;;1.73;1.63;;;;;;;25.89;58.44;98921.78;4897407;29;20053;-70
2022/09/06 10:27:01;;;;;;;1.85;1.75;;;;;;;26.05;57.92;98923.19;4896711;29;20048;-70
2022/09/06 10:30:05;;;;;;;2.10;1.73;;;;;;;26.18;57.91;98917.03;4898050;29;20055;-70
2022/09/06 10:32:47;;;;;;;2.97;2.33;;;;;;;26.26;57.33;98909.34;4858866;29;20452;-70
2022/09/06 10:35:28;;;;;;;1.80;1.70;;;;;;;26.35;57.64;98908.41;4898858;29;20040;-70
2022/09/06 10:37:55;;;;;;;2.17;1.98;;;;;;;26.46;56.96;98902.88;4912266;29;20052;-68
2022/09/06 10:40:54;;;;;;;2.00;1.90;;;;;;;26.52;56.26;98905.19;4897917;29;20051;-69
2022/09/06 10:43:24;;;;;;;2.88;1.92;;;;;;;26.59;56.01;98902.13;4898051;29;20049;-67
2022/09/06 10:46:17;;;;;;;2.00;1.80;;;;;;;26.65;54.74;98892.78;4897742;29;20040;-68
2022/09/06 10:48:45;;;;;;;1.70;1.58;;;;;;;26.77;54.94;98892.31;4896537;29;20378;-68
2022/09/06 10:51:25;;;;;;;3.50;1.67;;;;;;;26.90;54.17;98899.69;4896599;29;20060;-71
2022/09/06 10:54:06;;;;;;;3.55;1.90;;;;;;;27.01;53.95;98890.28;4897829;29;20056;-69
2022/09/06 10:56:45;;;;;;;2.13;2.03;;;;;;;27.10;54.03;98893.94;4897604;29;20055;-66
2022/09/06 10:59:24;;;;;;;1.77;1.52;;;;;;;27.26;52.90;98888.22;4897641;29;20060;-64
2022/09/06 11:02:24;;;;;;;2.95;1.90;;;;;;;27.37;52.10;98885.03;4904497;29;20048;-69
2022/09/06 11:04:52;;;;;;;1.52;1.42;;;;;;;27.48;50.85;98885.66;4923685;29;20073;-69
2022/09/06 11:07:44;;;;;;;1.08;1.08;;;;;;;27.57;49.90;98878.38;4919447;29;20055;-69
2022/09/06 11:10:33;;;;;;;2.50;1.30;;;;;;;27.64;49.55;98878.81;4933638;29;20076;-69
2022/09/06 11:13:13;;;;;;;1.85;1.55;;;;;;;27.74;49.26;98877.00;4930062;29;20050;-69
2022/09/06 11:16:05;;;;;;;2.40;1.20;;;;;;;27.82;48.35;98877.09;4926400;29;20063;-69
2022/09/06 11:18:43;;;;;;;2.45;1.40;;;;;;;27.90;48.23;98870.94;4921986;29;20066;-69
2022/09/06 11:21:34;;;;;;;1.95;1.00;;;;;;;28.01;47.60;98868.81;4923468;29;20048;-69
2022/09/06 11:24:16;;;;;;;1.33;1.17;;;;;;;28.16;47.05;98870.38;4920141;29;20052;-69
2022/09/06 11:27:09;;;;;;;1.77;1.30;;;;;;;28.30;46.92;98876.56;4917749;29;20048;-69
2022/09/06 11:29:40;;;;;;;1.20;1.10;;;;;;;28.45;46.58;98866.47;4916653;29;20059;-67
2022/09/06 11:32:33;;;;;;;1.30;1.20;;;;;;;28.57;45.86;98864.78;4914332;29;20058;-71
2022/09/06 11:35:03;;;;;;;1.67;1.00;;;;;;;28.68;45.62;98862.63;4913906;29;20051;-68
2022/09/06 11:37:33;;;;;;;1.10;1.00;;;;;;;28.75;45.38;98863.00;4915974;29;20048;-67
2022/09/06 11:40:23;;;;;;;2.25;1.25;;;;;;;28.85;45.41;98864.66;4916777;29;20388;-67
2022/09/06 11:42:57;;;;;;;1.88;1.50;;;;;;;28.98;45.22;98866.50;4915014;29;20046;-70
2022/09/06 11:45:42;;;;;;;1.60;1.13;;;;;;;29.07;44.30;98864.66;4914546;29;20087;-70
2022/09/06 11:48:25;;;;;;;1.63;0.98;;;;;;;29.12;44.34;98861.78;4916909;29;20524;-70
2022/09/06 11:50:58;;;;;;;2.22;1.45;;;;;;;29.18;44.26;98859.72;4918533;29;20052;-69
2022/09/06 11:53:27;;;;;;;1.70;1.10;;;;;;;29.26;43.85;98855.44;4918357;29;20079;-69
2022/09/06 11:55:59;;;;;;;1.65;1.17;;;;;;;29.36;43.69;98849.72;4919583;29;20064;-68
2022/09/06 11:58:50;;;;;;;1.17;1.08;;;;;;;29.52;43.57;98850.88;4918104;29;20051;-69